Wetterdaten: Dienstag, 26.03.2019
Datum Zeit Temp. A. Temp. A. min Temp. A. max Feuchte A. Luftdruck Regen Wind Richtung Richtung Sonnenschein UV Solar Windben
26.03.2019 00:00 6,5 C 6,4 C 6,5 C 80 % 1031,0 hPa 0,0 l/m 1,6 km/h (1 Bft) NW 315 0 min 0,0 UV-I 0 W/m 6,4 km/h (2 Bft)
26.03.2019 00:05 6,4 C 6,4 C 6,5 C 79 % 1031,0 hPa 0,0 l/m 3,2 km/h (1 Bft) W-NW 292 0 min 0,0 UV-I 0 W/m 11,3 km/h (2 Bft)
26.03.2019 00:10 6,5 C 6,4 C 6,5 C 79 % 1031,0 hPa 0,0 l/m 4,8 km/h (1 Bft) W-NW 292 0 min 0,0 UV-I 0 W/m 12,9 km/h (3 Bft)
26.03.2019 00:15 6,5 C 6,4 C 6,5 C 79 % 1031,1 hPa 0,0 l/m 4,8 km/h (1 Bft) W 270 0 min 0,0 UV-I 0 W/m 12,9 km/h (3 Bft)
26.03.2019 00:20 6,4 C 6,4 C 6,5 C 79 % 1031,0 hPa 0,0 l/m 3,2 km/h (1 Bft) N-NW 337 0 min 0,0 UV-I 0 W/m 12,9 km/h (3 Bft)
26.03.2019 00:25 6,4 C 6,4 C 6,5 C 79 % 1031,1 hPa 0,0 l/m 3,2 km/h (1 Bft) NW 315 0 min 0,0 UV-I 0 W/m 11,3 km/h (2 Bft)
26.03.2019 00:30 6,4 C 6,4 C 6,5 C 78 % 1031,1 hPa 0,0 l/m 4,8 km/h (1 Bft) W 270 0 min 0,0 UV-I 0 W/m 19,3 km/h (3 Bft)
26.03.2019 00:35 6,5 C 6,4 C 6,5 C 78 % 1031,1 hPa 0,0 l/m 4,8 km/h (1 Bft) W-NW 292 0 min 0,0 UV-I 0 W/m 12,9 km/h (3 Bft)
26.03.2019 00:40 6,5 C 6,4 C 6,5 C 78 % 1031,1 hPa 0,0 l/m 4,8 km/h (1 Bft) W-NW 292 0 min 0,0 UV-I 0 W/m 12,9 km/h (3 Bft)
26.03.2019 00:45 6,4 C 6,4 C 6,5 C 77 % 1031,2 hPa 0,0 l/m 3,2 km/h (1 Bft) W-NW 292 0 min 0,0 UV-I 0 W/m 11,3 km/h (2 Bft)
26.03.2019 00:50 6,4 C 6,4 C 6,4 C 77 % 1031,2 hPa 0,0 l/m 3,2 km/h (1 Bft) W-NW 292 0 min 0,0 UV-I 0 W/m 9,7 km/h (2 Bft)
26.03.2019 00:55 6,4 C 6,4 C 6,4 C 78 % 1031,3 hPa 0,0 l/m 3,2 km/h (1 Bft) N-NW 337 0 min 0,0 UV-I 0 W/m 12,9 km/h (3 Bft)
26.03.2019 01:00 6,4 C 6,4 C 6,4 C 77 % 1031,3 hPa 0,0 l/m 3,2 km/h (1 Bft) W 270 0 min 0,0 UV-I 0 W/m 11,3 km/h (2 Bft)
26.03.2019 01:05 6,4 C 6,4 C 6,4 C 77 % 1031,3 hPa 0,0 l/m 1,6 km/h (1 Bft) N-NW 337 0 min 0,0 UV-I 0 W/m 8,0 km/h (2 Bft)
26.03.2019 01:10 6,4 C 6,3 C 6,4 C 78 % 1031,3 hPa 0,0 l/m 3,2 km/h (1 Bft) N-NW 337 0 min 0,0 UV-I 0 W/m 12,9 km/h (3 Bft)
26.03.2019 01:15 6,3 C 6,3 C 6,4 C 77 % 1031,3 hPa 0,0 l/m 4,8 km/h (1 Bft) W-NW 292 0 min 0,0 UV-I 0 W/m 14,5 km/h (3 Bft)
26.03.2019 01:20 6,3 C 6,3 C 6,3 C 77 % 1031,3 hPa 0,0 l/m 4,8 km/h (1 Bft) N-NW 337 0 min 0,0 UV-I 0 W/m 16,1 km/h (3 Bft)
26.03.2019 01:25 6,3 C 6,3 C 6,3 C 77 % 1031,3 hPa 0,0 l/m 3,2 km/h (1 Bft) N-NW 337 0 min 0,0 UV-I 0 W/m 12,9 km/h (3 Bft)
26.03.2019 01:30 6,3 C 6,3 C 6,3 C 77 % 1031,4 hPa 0,0 l/m 3,2 km/h (1 Bft) NW 315 0 min 0,0 UV-I 0 W/m 8,0 km/h (2 Bft)
26.03.2019 01:35 6,2 C 6,2 C 6,3 C 77 % 1031,3 hPa 0,0 l/m 1,6 km/h (1 Bft) NW 315 0 min 0,0 UV-I 0 W/m 6,4 km/h (2 Bft)
26.03.2019 01:40 6,2 C 6,2 C 6,3 C 75 % 1031,4 hPa 0,0 l/m 1,6 km/h (1 Bft) W-NW 292 0 min 0,0 UV-I 0 W/m 6,4 km/h (2 Bft)
26.03.2019 01:45 6,2 C 6,2 C 6,2 C 75 % 1031,4 hPa 0,0 l/m 1,6 km/h (1 Bft) NW 315 0 min 0,0 UV-I 0 W/m 9,7 km/h (2 Bft)
26.03.2019 01:50 6,2 C 6,2 C 6,2 C 75 % 1031,4 hPa 0,0 l/m 3,2 km/h (1 Bft) W-NW 292 0 min 0,0 UV-I 0 W/m 11,3 km/h (2 Bft)
26.03.2019 01:55 6,2 C 6,2 C 6,2 C 74 % 1031,5 hPa 0,0 l/m 4,8 km/h (1 Bft) N-NW 337 0 min 0,0 UV-I 0 W/m 16,1 km/h (3 Bft)
26.03.2019 02:00 6,2 C 6,2 C 6,2 C 72 % 1031,4 hPa 0,0 l/m 4,8 km/h (1 Bft) N-NW 337 0 min 0,0 UV-I 0 W/m 9,7 km/h (2 Bft)
26.03.2019 02:05 6,2 C 6,2 C 6,2 C 73 % 1031,4 hPa 0,0 l/m 3,2 km/h (1 Bft) N 360 0 min 0,0 UV-I 0 W/m 8,0 km/h (2 Bft)
26.03.2019 02:10 6,2 C 6,2 C 6,2 C 73 % 1031,5 hPa 0,0 l/m 1,6 km/h (1 Bft) NW 315 0 min 0,0 UV-I 0 W/m 8,0 km/h (2 Bft)
26.03.2019 02:15 6,2 C 6,1 C 6,2 C 74 % 1031,4 hPa 0,0 l/m 1,6 km/h (1 Bft) N 360 0 min 0,0 UV-I 0 W/m 12,9 km/h (3 Bft)
26.03.2019 02:20 6,1 C 6,1 C 6,2 C 74 % 1031,4 hPa 0,0 l/m 3,2 km/h (1 Bft) N 360 0 min 0,0 UV-I 0 W/m 8,0 km/h (2 Bft)
26.03.2019 02:25 6,1 C 6,1 C 6,2 C 75 % 1031,5 hPa 0,0 l/m 1,6 km/h (1 Bft) N-NW 337 0 min 0,0 UV-I 0 W/m 6,4 km/h (2 Bft)
26.03.2019 02:30 6,1 C 6,1 C 6,1 C 74 % 1031,4 hPa 0,0 l/m 4,8 km/h (1 Bft) W-NW 292 0 min 0,0 UV-I 0 W/m 14,5 km/h (3 Bft)
26.03.2019 02:35 6,2 C 6,1 C 6,2 C 75 % 1031,5 hPa 0,0 l/m 3,2 km/h (1 Bft) W 270 0 min 0,0 UV-I 0 W/m 12,9 km/h (3 Bft)
26.03.2019 02:40 6,2 C 6,1 C 6,2 C 75 % 1031,6 hPa 0,0 l/m 1,6 km/h (1 Bft) W-NW 292 0 min 0,0 UV-I 0 W/m 4,8 km/h (1 Bft)
26.03.2019 02:45 6,1 C 6,1 C 6,2 C 76 % 1031,6 hPa 0,0 l/m 4,8 km/h (1 Bft) W-NW 292 0 min 0,0 UV-I 0 W/m 12,9 km/h (3 Bft)
26.03.2019 02:50 6,1 C 6,1 C 6,2 C 76 % 1031,5 hPa 0,0 l/m 11,3 km/h (2 Bft) W 270 0 min 0,0 UV-I 0 W/m 19,3 km/h (3 Bft)
26.03.2019 02:55 6,1 C 6,1 C 6,1 C 75 % 1031,4 hPa 0,0 l/m 8,0 km/h (2 Bft) W 270 0 min 0,0 UV-I 0 W/m 19,3 km/h (3 Bft)
26.03.2019 03:00 6,1 C 6,1 C 6,1 C 72 % 1031,5 hPa 0,0 l/m 11,3 km/h (2 Bft) W 270 0 min 0,0 UV-I 0 W/m 19,3 km/h (3 Bft)
26.03.2019 03:05 6,2 C 6,1 C 6,2 C 72 % 1031,5 hPa 0,0 l/m 6,4 km/h (2 Bft) W-NW 292 0 min 0,0 UV-I 0 W/m 19,3 km/h (3 Bft)
26.03.2019 03:10 6,2 C 6,2 C 6,2 C 72 % 1031,4 hPa 0,0 l/m 4,8 km/h (1 Bft) W-NW 292 0 min 0,0 UV-I 0 W/m 14,5 km/h (3 Bft)
26.03.2019 03:15 6,2 C 6,2 C 6,2 C 73 % 1031,6 hPa 0,0 l/m 9,7 km/h (2 Bft) W-NW 292 0 min 0,0 UV-I 0 W/m 17,7 km/h (3 Bft)
26.03.2019 03:20 6,1 C 6,1 C 6,2 C 74 % 1031,6 hPa 0,0 l/m 6,4 km/h (2 Bft) W-NW 292 0 min 0,0 UV-I 0 W/m 16,1 km/h (3 Bft)
26.03.2019 03:25 6,1 C 6,1 C 6,1 C 73 % 1031,6 hPa 0,0 l/m 4,8 km/h (1 Bft) N-NW 337 0 min 0,0 UV-I 0 W/m 12,9 km/h (3 Bft)
26.03.2019 03:30 6,1 C 6,1 C 6,1 C 72 % 1031,5 hPa 0,0 l/m 8,0 km/h (2 Bft) N 360 0 min 0,0 UV-I 0 W/m 19,3 km/h (3 Bft)
26.03.2019 03:35 6,1 C 6,1 C 6,1 C 72 % 1031,5 hPa 0,0 l/m 4,8 km/h (1 Bft) N-NW 337 0 min 0,0 UV-I 0 W/m 12,9 km/h (3 Bft)
26.03.2019 03:40 6,1 C 6,0 C 6,1 C 72 % 1031,5 hPa 0,0 l/m 8,0 km/h (2 Bft) N 360 0 min 0,0 UV-I 0 W/m 16,1 km/h (3 Bft)
26.03.2019 03:45 6,1 C 6,1 C 6,1 C 73 % 1031,5 hPa 0,0 l/m 4,8 km/h (1 Bft) N 360 0 min 0,0 UV-I 0 W/m 12,9 km/h (3 Bft)
26.03.2019 03:50 5,9 C 5,9 C 6,1 C 76 % 1031,4 hPa 0,0 l/m 6,4 km/h (2 Bft) W-NW 292 0 min 0,0 UV-I 0 W/m 16,1 km/h (3 Bft)
26.03.2019 03:55 5,9 C 5,9 C 5,9 C 76 % 1031,4 hPa 0,0 l/m 4,8 km/h (1 Bft) W-NW 292 0 min 0,0 UV-I 0 W/m 12,9 km/h (3 Bft)
26.03.2019 04:00 5,9 C 5,9 C 5,9 C 75 % 1031,4 hPa 0,0 l/m 6,4 km/h (2 Bft) W-NW 292 0 min 0,0 UV-I 0 W/m 16,1 km/h (3 Bft)
26.03.2019 04:05 5,9 C 5,9 C 5,9 C 76 % 1031,4 hPa 0,0 l/m 4,8 km/h (1 Bft) W-NW 292 0 min 0,0 UV-I 0 W/m 12,9 km/h (3 Bft)
26.03.2019 04:10 5,9 C 5,9 C 5,9 C 75 % 1031,4 hPa 0,0 l/m 3,2 km/h (1 Bft) NW 315 0 min 0,0 UV-I 0 W/m 6,4 km/h (2 Bft)
26.03.2019 04:15 5,9 C 5,9 C 5,9 C 75 % 1031,3 hPa 0,0 l/m 3,2 km/h (1 Bft) W-NW 292 0 min 0,0 UV-I 0 W/m 12,9 km/h (3 Bft)
26.03.2019 04:20 5,9 C 5,9 C 5,9 C 73 % 1031,4 hPa 0,0 l/m 6,4 km/h (2 Bft) W-NW 292 0 min 0,0 UV-I 0 W/m 20,9 km/h (4 Bft)
26.03.2019 04:25 6,0 C 5,9 C 6,0 C 73 % 1031,4 hPa 0,0 l/m 6,4 km/h (2 Bft) N-NW 337 0 min 0,0 UV-I 0 W/m 20,9 km/h (4 Bft)
26.03.2019 04:30 6,0 C 6,0 C 6,1 C 72 % 1031,5 hPa 0,0 l/m 4,8 km/h (1 Bft) NW 315 0 min 0,0 UV-I 0 W/m 16,1 km/h (3 Bft)
26.03.2019 04:35 6,1 C 6,1 C 6,1 C 71 % 1031,5 hPa 0,0 l/m 6,4 km/h (2 Bft) W-NW 292 0 min 0,0 UV-I 0 W/m 14,5 km/h (3 Bft)
26.03.2019 04:40 6,1 C 6,1 C 6,1 C 72 % 1031,5 hPa 0,0 l/m 3,2 km/h (1 Bft) N 360 0 min 0,0 UV-I 0 W/m 9,7 km/h (2 Bft)
26.03.2019 04:45 6,1 C 6,1 C 6,1 C 72 % 1031,5 hPa 0,0 l/m 3,2 km/h (1 Bft) N-NW 337 0 min 0,0 UV-I 0 W/m 16,1 km/h (3 Bft)
26.03.2019 04:50 6,1 C 6,0 C 6,1 C 72 % 1031,5 hPa 0,0 l/m 4,8 km/h (1 Bft) N 360 0 min 0,0 UV-I 0 W/m 9,7 km/h (2 Bft)
26.03.2019 04:55 6,0 C 6,0 C 6,1 C 73 % 1031,5 hPa 0,0 l/m 4,8 km/h (1 Bft) N-NW 337 0 min 0,0 UV-I 0 W/m 11,3 km/h (2 Bft)
26.03.2019 05:00 6,0 C 6,0 C 6,1 C 73 % 1031,5 hPa 0,0 l/m 3,2 km/h (1 Bft) N-NW 337 0 min 0,0 UV-I 0 W/m 8,0 km/h (2 Bft)
26.03.2019 05:05 6,0 C 6,0 C 6,1 C 74 % 1031,6 hPa 0,0 l/m 3,2 km/h (1 Bft) N-NW 337 0 min 0,0 UV-I 0 W/m 9,7 km/h (2 Bft)
26.03.2019 05:10 5,9 C 5,9 C 6,0 C 74 % 1031,6 hPa 0,0 l/m 1,6 km/h (1 Bft) N-NW 337 0 min 0,0 UV-I 0 W/m 6,4 km/h (2 Bft)
26.03.2019 05:15 6,0 C 5,9 C 6,0 C 73 % 1031,5 hPa 0,0 l/m 4,8 km/h (1 Bft) N-NW 337 0 min 0,0 UV-I 0 W/m 9,7 km/h (2 Bft)
26.03.2019 05:20 6,0 C 6,0 C 6,1 C 74 % 1031,6 hPa 0,0 l/m 3,2 km/h (1 Bft) N-NW 337 0 min 0,0 UV-I 0 W/m 14,5 km/h (3 Bft)
26.03.2019 05:25 5,9 C 5,9 C 6,0 C 75 % 1031,6 hPa 0,0 l/m 3,2 km/h (1 Bft) W-NW 292 0 min 0,0 UV-I 0 W/m 12,9 km/h (3 Bft)
26.03.2019 05:30 5,8 C 5,8 C 5,9 C 76 % 1031,5 hPa 0,0 l/m 6,4 km/h (2 Bft) W 270 0 min 0,0 UV-I 0 W/m 11,3 km/h (2 Bft)
26.03.2019 05:35 5,7 C 5,7 C 5,8 C 77 % 1031,5 hPa 0,0 l/m 6,4 km/h (2 Bft) W 270 0 min 0,0 UV-I 0 W/m 11,3 km/h (2 Bft)
26.03.2019 05:40 5,7 C 5,7 C 5,8 C 77 % 1031,5 hPa 0,0 l/m 6,4 km/h (2 Bft) W 270 0 min 0,0 UV-I 0 W/m 12,9 km/h (3 Bft)
26.03.2019 05:45 5,6 C 5,6 C 5,7 C 77 % 1031,5 hPa 0,0 l/m 6,4 km/h (2 Bft) W 270 0 min 0,0 UV-I 0 W/m 12,9 km/h (3 Bft)
26.03.2019 05:50 5,7 C 5,6 C 5,7 C 77 % 1031,5 hPa 0,0 l/m 9,7 km/h (2 Bft) W 270 0 min 0,0 UV-I 0 W/m 16,1 km/h (3 Bft)
26.03.2019 05:55 5,8 C 5,7 C 5,8 C 74 % 1031,5 hPa 0,0 l/m 4,8 km/h (1 Bft) W-NW 292 0 min 0,0 UV-I 0 W/m 12,9 km/h (3 Bft)
26.03.2019 06:00 5,9 C 5,8 C 5,9 C 72 % 1031,6 hPa 0,0 l/m 8,0 km/h (2 Bft) W-NW 292 0 min 0,0 UV-I 0 W/m 20,9 km/h (4 Bft)
26.03.2019 06:05 5,9 C 5,9 C 6,0 C 72 % 1031,6 hPa 0,0 l/m 3,2 km/h (1 Bft) W-NW 292 0 min 0,0 UV-I 0 W/m 8,0 km/h (2 Bft)
26.03.2019 06:10 5,9 C 5,9 C 6,0 C 75 % 1031,5 hPa 0,0 l/m 4,8 km/h (1 Bft) W 270 0 min 0,0 UV-I 0 W/m 11,3 km/h (2 Bft)
26.03.2019 06:15 5,7 C 5,7 C 5,9 C 78 % 1031,4 hPa 0,0 l/m 4,8 km/h (1 Bft) W 270 0 min 0,0 UV-I 0 W/m 11,3 km/h (2 Bft)
26.03.2019 06:20 5,6 C 5,6 C 5,7 C 78 % 1031,4 hPa 0,0 l/m 6,4 km/h (2 Bft) W 270 0 min 0,0 UV-I 0 W/m 11,3 km/h (2 Bft)
26.03.2019 06:25 5,6 C 5,6 C 5,6 C 79 % 1031,4 hPa 0,0 l/m 4,8 km/h (1 Bft) W 270 0 min 0,0 UV-I 0 W/m 11,3 km/h (2 Bft)
26.03.2019 06:30 5,5 C 5,5 C 5,6 C 80 % 1031,4 hPa 0,0 l/m 6,4 km/h (2 Bft) W 270 0 min 0,0 UV-I 0 W/m 11,3 km/h (2 Bft)
26.03.2019 06:35 5,6 C 5,5 C 5,6 C 78 % 1031,6 hPa 0,0 l/m 8,0 km/h (2 Bft) W 270 0 min 0,0 UV-I 0 W/m 14,5 km/h (3 Bft)
26.03.2019 06:40 5,7 C 5,6 C 5,7 C 78 % 1031,6 hPa 0,0 l/m 8,0 km/h (2 Bft) W 270 0 min 0,0 UV-I 5 W/m 16,1 km/h (3 Bft)
26.03.2019 06:45 5,7 C 5,6 C 5,8 C 78 % 1031,6 hPa 0,0 l/m 6,4 km/h (2 Bft) W-NW 292 0 min 0,0 UV-I 9 W/m 12,9 km/h (3 Bft)
26.03.2019 06:50 5,9 C 5,7 C 5,9 C 71 % 1031,6 hPa 0,0 l/m 9,7 km/h (2 Bft) W-NW 292 0 min 0,0 UV-I 12 W/m 19,3 km/h (3 Bft)
26.03.2019 06:55 5,9 C 5,9 C 6,0 C 71 % 1031,7 hPa 0,0 l/m 11,3 km/h (2 Bft) W-NW 292 0 min 0,0 UV-I 16 W/m 17,7 km/h (3 Bft)
26.03.2019 07:00 5,9 C 5,9 C 6,0 C 71 % 1031,6 hPa 0,0 l/m 4,8 km/h (1 Bft) W-NW 292 0 min 0,0 UV-I 28 W/m 19,3 km/h (3 Bft)
26.03.2019 07:05 5,9 C 5,9 C 5,9 C 71 % 1031,6 hPa 0,0 l/m 4,8 km/h (1 Bft) W-NW 292 0 min 0,0 UV-I 28 W/m 11,3 km/h (2 Bft)
26.03.2019 07:10 5,9 C 5,9 C 5,9 C 71 % 1031,6 hPa 0,0 l/m 4,8 km/h (1 Bft) W-NW 292 0 min 0,0 UV-I 28 W/m 14,5 km/h (3 Bft)
26.03.2019 07:15 5,9 C 5,9 C 5,9 C 71 % 1031,7 hPa 0,0 l/m 4,8 km/h (1 Bft) W-NW 292 0 min 0,0 UV-I 32 W/m 11,3 km/h (2 Bft)
26.03.2019 07:20 5,9 C 5,9 C 6,0 C 70 % 1031,7 hPa 0,0 l/m 6,4 km/h (2 Bft) W-NW 292 0 min 0,0 UV-I 39 W/m 12,9 km/h (3 Bft)
26.03.2019 07:25 6,1 C 6,0 C 6,1 C 72 % 1031,7 hPa 0,0 l/m 4,8 km/h (1 Bft) N-NO 22 0 min 0,0 UV-I 42 W/m 12,9 km/h (3 Bft)
26.03.2019 07:30 6,1 C 6,1 C 6,1 C 71 % 1031,8 hPa 0,0 l/m 3,2 km/h (1 Bft) W-NW 292 0 min 0,0 UV-I 37 W/m 9,7 km/h (2 Bft)
26.03.2019 07:35 6,1 C 6,1 C 6,1 C 71 % 1032,0 hPa 0,0 l/m 3,2 km/h (1 Bft) W-NW 292 0 min 0,0 UV-I 37 W/m 4,8 km/h (1 Bft)
26.03.2019 07:40 6,1 C 6,1 C 6,1 C 72 % 1032,0 hPa 0,0 l/m 8,0 km/h (2 Bft) W 270 0 min 0,0 UV-I 39 W/m 16,1 km/h (3 Bft)
26.03.2019 07:45 5,9 C 5,9 C 6,1 C 73 % 1031,9 hPa 0,0 l/m 8,0 km/h (2 Bft) W 270 0 min 0,0 UV-I 40 W/m 12,9 km/h (3 Bft)
26.03.2019 07:50 5,8 C 5,8 C 6,0 C 74 % 1031,9 hPa 0,0 l/m 8,0 km/h (2 Bft) W 270 0 min 0,0 UV-I 32 W/m 16,1 km/h (3 Bft)
26.03.2019 07:55 5,8 C 5,8 C 5,8 C 74 % 1032,0 hPa 0,0 l/m 8,0 km/h (2 Bft) W 270 0 min 0,0 UV-I 33 W/m 12,9 km/h (3 Bft)
26.03.2019 08:00 5,8 C 5,8 C 5,8 C 74 % 1032,0 hPa 0,0 l/m 4,8 km/h (1 Bft) W 270 0 min 0,0 UV-I 39 W/m 9,7 km/h (2 Bft)
26.03.2019 08:05 5,9 C 5,8 C 5,9 C 75 % 1032,0 hPa 0,0 l/m 4,8 km/h (1 Bft) W 270 0 min 0,0 UV-I 42 W/m 11,3 km/h (2 Bft)
26.03.2019 08:10 5,9 C 5,9 C 5,9 C 76 % 1032,1 hPa 0,0 l/m 4,8 km/h (1 Bft) W 270 0 min 0,0 UV-I 39 W/m 9,7 km/h (2 Bft)
26.03.2019 08:15 5,9 C 5,9 C 5,9 C 75 % 1032,1 hPa 0,0 l/m 3,2 km/h (1 Bft) W 270 0 min 0,0 UV-I 46 W/m 11,3 km/h (2 Bft)
26.03.2019 08:20 6,1 C 5,9 C 6,1 C 74 % 1032,2 hPa 0,0 l/m 3,2 km/h (1 Bft) W 270 0 min 0,0 UV-I 54 W/m 9,7 km/h (2 Bft)
26.03.2019 08:25 6,1 C 6,0 C 6,1 C 74 % 1032,3 hPa 0,0 l/m 3,2 km/h (1 Bft) W 270 0 min 0,0 UV-I 58 W/m 6,4 km/h (2 Bft)
26.03.2019 08:30 6,2 C 6,1 C 6,2 C 75 % 1032,3 hPa 0,0 l/m 6,4 km/h (2 Bft) W 270 0 min 0,5 UV-I 114 W/m 11,3 km/h (2 Bft)
26.03.2019 08:35 6,3 C 6,2 C 6,3 C 75 % 1032,3 hPa 0,0 l/m 8,0 km/h (2 Bft) W 270 0 min 0,6 UV-I 123 W/m 14,5 km/h (3 Bft)
26.03.2019 08:40 6,4 C 6,4 C 6,4 C 75 % 1032,4 hPa 0,0 l/m 9,7 km/h (2 Bft) W 270 0 min 0,7 UV-I 128 W/m 16,1 km/h (3 Bft)
26.03.2019 08:45 6,5 C 6,4 C 6,5 C 75 % 1032,3 hPa 0,0 l/m 11,3 km/h (2 Bft) W 270 0 min 0,8 UV-I 185 W/m 16,1 km/h (3 Bft)
26.03.2019 08:50 6,6 C 6,5 C 6,6 C 75 % 1032,3 hPa 0,0 l/m 11,3 km/h (2 Bft) W 270 0 min 0,8 UV-I 200 W/m 17,7 km/h (3 Bft)
26.03.2019 08:55 6,4 C 6,4 C 6,6 C 76 % 1032,4 hPa 0,0 l/m 9,7 km/h (2 Bft) W 270 0 min 0,5 UV-I 79 W/m 17,7 km/h (3 Bft)
26.03.2019 09:00 6,4 C 6,3 C 6,4 C 78 % 1032,3 hPa 0,0 l/m 8,0 km/h (2 Bft) W 270 0 min 1,0 UV-I 113 W/m 14,5 km/h (3 Bft)
26.03.2019 09:05 6,4 C 6,3 C 6,4 C 77 % 1032,3 hPa 0,0 l/m 11,3 km/h (2 Bft) W 270 0 min 1,3 UV-I 206 W/m 19,3 km/h (3 Bft)
26.03.2019 09:10 6,8 C 6,4 C 6,8 C 77 % 1032,4 hPa 0,0 l/m 9,7 km/h (2 Bft) W 270 5 min 1,6 UV-I 394 W/m 19,3 km/h (3 Bft)
26.03.2019 09:15 7,1 C 6,8 C 7,1 C 76 % 1032,3 hPa 0,0 l/m 9,7 km/h (2 Bft) W 270 5 min 1,7 UV-I 410 W/m 16,1 km/h (3 Bft)
26.03.2019 09:20 7,3 C 7,1 C 7,3 C 76 % 1032,4 hPa 0,0 l/m 11,3 km/h (2 Bft) W 270 5 min 1,6 UV-I 357 W/m 19,3 km/h (3 Bft)
26.03.2019 09:25 7,3 C 7,2 C 7,3 C 74 % 1032,4 hPa 0,0 l/m 12,9 km/h (3 Bft) W 270 5 min 1,5 UV-I 262 W/m 22,5 km/h (4 Bft)
26.03.2019 09:30 7,3 C 7,3 C 7,3 C 73 % 1032,4 hPa 0,0 l/m 14,5 km/h (3 Bft) W 270 5 min 1,7 UV-I 390 W/m 25,7 km/h (4 Bft)
26.03.2019 09:35 7,5 C 7,3 C 7,5 C 75 % 1032,4 hPa 0,0 l/m 12,9 km/h (3 Bft) W 270 5 min 1,5 UV-I 290 W/m 20,9 km/h (4 Bft)
26.03.2019 09:40 7,4 C 7,4 C 7,6 C 74 % 1032,4 hPa 0,0 l/m 16,1 km/h (3 Bft) W 270 0 min 1,3 UV-I 218 W/m 27,4 km/h (5 Bft)
26.03.2019 09:45 7,3 C 7,3 C 7,4 C 75 % 1032,4 hPa 0,0 l/m 16,1 km/h (3 Bft) W 270 0 min 1,4 UV-I 216 W/m 24,1 km/h (4 Bft)
26.03.2019 09:50 7,3 C 7,3 C 7,3 C 76 % 1032,4 hPa 0,0 l/m 11,3 km/h (2 Bft) W 270 0 min 2,4 UV-I 199 W/m 22,5 km/h (4 Bft)
26.03.2019 09:55 7,6 C 7,3 C 7,6 C 74 % 1032,5 hPa 0,0 l/m 14,5 km/h (3 Bft) W 270 5 min 2,2 UV-I 506 W/m 24,1 km/h (4 Bft)
26.03.2019 10:00 7,8 C 7,5 C 7,8 C 73 % 1032,5 hPa 0,0 l/m 14,5 km/h (3 Bft) W 270 5 min 2,7 UV-I 636 W/m 22,5 km/h (4 Bft)
26.03.2019 10:05 8,2 C 7,8 C 8,2 C 72 % 1032,4 hPa 0,0 l/m 14,5 km/h (3 Bft) W 270 5 min 2,8 UV-I 638 W/m 25,7 km/h (4 Bft)
26.03.2019 10:10 8,3 C 8,2 C 8,3 C 74 % 1032,4 hPa 0,0 l/m 12,9 km/h (3 Bft) W 270 5 min 2,8 UV-I 552 W/m 20,9 km/h (4 Bft)
26.03.2019 10:15 8,0 C 7,9 C 8,3 C 73 % 1032,4 hPa 0,0 l/m 17,7 km/h (3 Bft) W 270 0 min 2,1 UV-I 251 W/m 25,7 km/h (4 Bft)
26.03.2019 10:20 7,6 C 7,6 C 7,9 C 72 % 1032,5 hPa 0,0 l/m 16,1 km/h (3 Bft) W 270 0 min 1,2 UV-I 165 W/m 25,7 km/h (4 Bft)
26.03.2019 10:25 7,4 C 7,4 C 7,7 C 71 % 1032,5 hPa 0,0 l/m 14,5 km/h (3 Bft) W 270 0 min 1,0 UV-I 151 W/m 20,9 km/h (4 Bft)
26.03.2019 10:30 7,4 C 7,4 C 7,4 C 73 % 1032,6 hPa 0,0 l/m 11,3 km/h (2 Bft) W 270 0 min 0,8 UV-I 123 W/m 19,3 km/h (3 Bft)
26.03.2019 10:35 7,4 C 7,3 C 7,4 C 72 % 1032,7 hPa 0,0 l/m 14,5 km/h (3 Bft) W 270 0 min 0,8 UV-I 114 W/m 22,5 km/h (4 Bft)
26.03.2019 10:40 7,3 C 7,3 C 7,4 C 72 % 1032,7 hPa 0,0 l/m 16,1 km/h (3 Bft) W 270 0 min 1,0 UV-I 125 W/m 24,1 km/h (4 Bft)
26.03.2019 10:45 7,4 C 7,3 C 7,4 C 73 % 1032,7 hPa 0,0 l/m 14,5 km/h (3 Bft) W 270 0 min 1,1 UV-I 149 W/m 22,5 km/h (4 Bft)
26.03.2019 10:50 7,4 C 7,3 C 7,4 C 74 % 1032,6 hPa 0,0 l/m 14,5 km/h (3 Bft) W 270 0 min 1,2 UV-I 165 W/m 25,7 km/h (4 Bft)
26.03.2019 10:55 7,3 C 7,3 C 7,4 C 74 % 1032,8 hPa 0,0 l/m 14,5 km/h (3 Bft) W 270 0 min 1,0 UV-I 153 W/m 20,9 km/h (4 Bft)
26.03.2019 11:00 7,3 C 7,3 C 7,3 C 74 % 1032,7 hPa 0,0 l/m 14,5 km/h (3 Bft) W 270 0 min 1,3 UV-I 185 W/m 22,5 km/h (4 Bft)
26.03.2019 11:05 7,4 C 7,3 C 7,4 C 74 % 1032,7 hPa 0,0 l/m 12,9 km/h (3 Bft) W 270 0 min 1,4 UV-I 200 W/m 22,5 km/h (4 Bft)
26.03.2019 11:10 7,4 C 7,4 C 7,4 C 74 % 1032,7 hPa 0,0 l/m 12,9 km/h (3 Bft) W 270 0 min 1,4 UV-I 199 W/m 24,1 km/h (4 Bft)
26.03.2019 11:15 7,4 C 7,3 C 7,4 C 73 % 1032,7 hPa 0,0 l/m 11,3 km/h (2 Bft) W 270 0 min 1,6 UV-I 214 W/m 25,7 km/h (4 Bft)
26.03.2019 11:20 7,6 C 7,4 C 7,6 C 75 % 1032,6 hPa 0,0 l/m 6,4 km/h (2 Bft) N-NO 22 0 min 1,7 UV-I 218 W/m 17,7 km/h (3 Bft)
26.03.2019 11:25 7,6 C 7,6 C 7,7 C 73 % 1032,5 hPa 0,0 l/m 8,0 km/h (2 Bft) W 270 0 min 2,2 UV-I 325 W/m 14,5 km/h (3 Bft)
26.03.2019 11:30 7,9 C 7,7 C 7,9 C 74 % 1032,4 hPa 0,0 l/m 9,7 km/h (2 Bft) W 270 5 min 2,4 UV-I 380 W/m 14,5 km/h (3 Bft)
26.03.2019 11:35 8,1 C 7,9 C 8,1 C 73 % 1032,5 hPa 0,0 l/m 8,0 km/h (2 Bft) W 270 5 min 2,6 UV-I 417 W/m 20,9 km/h (4 Bft)
26.03.2019 11:40 8,2 C 8,1 C 8,2 C 72 % 1032,4 hPa 0,0 l/m 6,4 km/h (2 Bft) NW 315 5 min 2,5 UV-I 455 W/m 17,7 km/h (3 Bft)
26.03.2019 11:45 8,4 C 8,2 C 8,4 C 71 % 1032,4 hPa 0,0 l/m 3,2 km/h (1 Bft) N 360 5 min 3,0 UV-I 596 W/m 9,7 km/h (2 Bft)
26.03.2019 11:50 8,4 C 8,3 C 8,4 C 71 % 1032,3 hPa 0,0 l/m 8,0 km/h (2 Bft) W 270 5 min 2,2 UV-I 355 W/m 19,3 km/h (3 Bft)
26.03.2019 11:55 8,6 C 8,4 C 8,6 C 71 % 1032,3 hPa 0,0 l/m 12,9 km/h (3 Bft) W 270 5 min 3,0 UV-I 478 W/m 19,3 km/h (3 Bft)
26.03.2019 12:00 8,7 C 8,6 C 8,7 C 69 % 1032,4 hPa 0,0 l/m 9,7 km/h (2 Bft) W 270 5 min 3,6 UV-I 522 W/m 20,9 km/h (4 Bft)
26.03.2019 12:05 8,8 C 8,7 C 8,8 C 67 % 1032,4 hPa 0,0 l/m 8,0 km/h (2 Bft) W-NW 292 5 min 3,9 UV-I 383 W/m 17,7 km/h (3 Bft)
26.03.2019 12:10 8,8 C 8,8 C 8,8 C 69 % 1032,3 hPa 0,0 l/m 4,8 km/h (1 Bft) W-NW 292 5 min 2,9 UV-I 413 W/m 12,9 km/h (3 Bft)
26.03.2019 12:15 8,9 C 8,8 C 9,0 C 67 % 1032,3 hPa 0,0 l/m 4,8 km/h (1 Bft) W 270 5 min 3,4 UV-I 452 W/m 11,3 km/h (2 Bft)
26.03.2019 12:20 8,9 C 8,9 C 9,0 C 66 % 1032,3 hPa 0,0 l/m 9,7 km/h (2 Bft) W 270 5 min 2,9 UV-I 522 W/m 17,7 km/h (3 Bft)
26.03.2019 12:25 8,9 C 8,9 C 9,1 C 65 % 1032,3 hPa 0,0 l/m 12,9 km/h (3 Bft) W 270 0 min 2,5 UV-I 359 W/m 20,9 km/h (4 Bft)
26.03.2019 12:30 8,9 C 8,8 C 9,0 C 65 % 1032,1 hPa 0,0 l/m 9,7 km/h (2 Bft) W 270 5 min 2,4 UV-I 373 W/m 17,7 km/h (3 Bft)
26.03.2019 12:35 8,8 C 8,8 C 8,9 C 66 % 1032,1 hPa 0,0 l/m 11,3 km/h (2 Bft) W 270 0 min 1,1 UV-I 144 W/m 20,9 km/h (4 Bft)
26.03.2019 12:40 8,7 C 8,7 C 8,9 C 65 % 1032,1 hPa 0,0 l/m 11,3 km/h (2 Bft) W 270 0 min 1,0 UV-I 125 W/m 19,3 km/h (3 Bft)
26.03.2019 12:45 8,8 C 8,7 C 8,8 C 69 % 1032,0 hPa 0,0 l/m 9,7 km/h (2 Bft) W 270 0 min 1,8 UV-I 262 W/m 22,5 km/h (4 Bft)
26.03.2019 12:50 8,9 C 8,8 C 8,9 C 70 % 1032,1 hPa 0,0 l/m 17,7 km/h (3 Bft) W 270 0 min 1,8 UV-I 258 W/m 25,7 km/h (4 Bft)
26.03.2019 12:55 8,7 C 8,7 C 8,9 C 68 % 1032,2 hPa 0,0 l/m 19,3 km/h (3 Bft) W 270 0 min 1,5 UV-I 197 W/m 25,7 km/h (4 Bft)
26.03.2019 13:00 8,7 C 8,7 C 8,8 C 68 % 1032,1 hPa 0,0 l/m 17,7 km/h (3 Bft) W 270 0 min 1,7 UV-I 237 W/m 27,4 km/h (5 Bft)
26.03.2019 13:05 8,5 C 8,5 C 8,7 C 68 % 1032,0 hPa 0,0 l/m 19,3 km/h (3 Bft) W 270 0 min 1,6 UV-I 218 W/m 29,0 km/h (5 Bft)
26.03.2019 13:10 8,5 C 8,4 C 8,5 C 70 % 1032,0 hPa 0,0 l/m 17,7 km/h (3 Bft) W 270 0 min 1,4 UV-I 202 W/m 25,7 km/h (4 Bft)
26.03.2019 13:15 8,4 C 8,4 C 8,4 C 70 % 1032,0 hPa 0,0 l/m 19,3 km/h (3 Bft) W 270 0 min 1,5 UV-I 220 W/m 27,4 km/h (5 Bft)
26.03.2019 13:20 8,2 C 8,2 C 8,4 C 69 % 1032,0 hPa 0,0 l/m 19,3 km/h (3 Bft) W 270 0 min 1,5 UV-I 213 W/m 27,4 km/h (5 Bft)
26.03.2019 13:25 8,3 C 8,2 C 8,3 C 72 % 1032,0 hPa 0,0 l/m 17,7 km/h (3 Bft) W 270 0 min 1,7 UV-I 243 W/m 25,7 km/h (4 Bft)
26.03.2019 13:30 8,3 C 8,2 C 8,3 C 71 % 1032,1 hPa 0,0 l/m 17,7 km/h (3 Bft) W 270 0 min 1,8 UV-I 264 W/m 27,4 km/h (5 Bft)
26.03.2019 13:35 8,4 C 8,3 C 8,4 C 73 % 1032,0 hPa 0,0 l/m 16,1 km/h (3 Bft) W 270 0 min 1,9 UV-I 265 W/m 22,5 km/h (4 Bft)
26.03.2019 13:40 8,5 C 8,4 C 8,5 C 73 % 1032,0 hPa 0,0 l/m 14,5 km/h (3 Bft) W 270 0 min 1,9 UV-I 283 W/m 25,7 km/h (4 Bft)
26.03.2019 13:45 8,6 C 8,5 C 8,6 C 70 % 1032,0 hPa 0,0 l/m 16,1 km/h (3 Bft) W 270 0 min 1,7 UV-I 246 W/m 24,1 km/h (4 Bft)
26.03.2019 13:50 8,6 C 8,5 C 8,6 C 72 % 1032,1 hPa 0,0 l/m 14,5 km/h (3 Bft) W 270 0 min 1,4 UV-I 214 W/m 24,1 km/h (4 Bft)
26.03.2019 13:55 8,6 C 8,6 C 8,6 C 74 % 1032,0 hPa 0,0 l/m 12,9 km/h (3 Bft) W 270 0 min 1,2 UV-I 167 W/m 20,9 km/h (4 Bft)
26.03.2019 14:00 8,3 C 8,3 C 8,6 C 76 % 1032,0 hPa 0,0 l/m 11,3 km/h (2 Bft) W 270 0 min 1,3 UV-I 185 W/m 17,7 km/h (3 Bft)
26.03.2019 14:05 8,3 C 8,2 C 8,3 C 75 % 1031,9 hPa 0,0 l/m 14,5 km/h (3 Bft) W 270 0 min 1,5 UV-I 207 W/m 20,9 km/h (4 Bft)
26.03.2019 14:10 8,3 C 8,2 C 8,3 C 76 % 1031,8 hPa 0,0 l/m 11,3 km/h (2 Bft) W 270 0 min 1,4 UV-I 200 W/m 17,7 km/h (3 Bft)
26.03.2019 14:15 8,3 C 8,3 C 8,3 C 76 % 1031,9 hPa 0,0 l/m 11,3 km/h (2 Bft) W 270 0 min 1,3 UV-I 174 W/m 16,1 km/h (3 Bft)
26.03.2019 14:20 8,3 C 8,3 C 8,3 C 73 % 1031,8 hPa 0,0 l/m 9,7 km/h (2 Bft) W 270 0 min 0,9 UV-I 116 W/m 16,1 km/h (3 Bft)
26.03.2019 14:25 8,3 C 8,3 C 8,3 C 74 % 1031,9 hPa 0,0 l/m 8,0 km/h (2 Bft) W-NW 292 0 min 0,7 UV-I 95 W/m 16,1 km/h (3 Bft)
26.03.2019 14:30 8,3 C 8,2 C 8,3 C 75 % 1031,8 hPa 0,0 l/m 8,0 km/h (2 Bft) W 270 0 min 0,7 UV-I 88 W/m 12,9 km/h (3 Bft)
26.03.2019 14:35 8,3 C 8,3 C 8,4 C 74 % 1031,7 hPa 0,0 l/m 8,0 km/h (2 Bft) W 270 0 min 0,6 UV-I 83 W/m 12,9 km/h (3 Bft)
26.03.2019 14:40 8,4 C 8,3 C 8,4 C 73 % 1031,8 hPa 0,0 l/m 8,0 km/h (2 Bft) W 270 0 min 0,9 UV-I 120 W/m 16,1 km/h (3 Bft)
26.03.2019 14:45 8,5 C 8,3 C 8,5 C 74 % 1031,8 hPa 0,0 l/m 11,3 km/h (2 Bft) W 270 0 min 1,5 UV-I 206 W/m 19,3 km/h (3 Bft)
26.03.2019 14:50 8,7 C 8,5 C 8,7 C 74 % 1031,7 hPa 0,0 l/m 12,9 km/h (3 Bft) W 270 0 min 1,5 UV-I 221 W/m 19,3 km/h (3 Bft)
26.03.2019 14:55 8,7 C 8,7 C 8,8 C 73 % 1031,6 hPa 0,0 l/m 14,5 km/h (3 Bft) W 270 0 min 1,3 UV-I 227 W/m 20,9 km/h (4 Bft)
26.03.2019 15:00 8,7 C 8,7 C 8,8 C 74 % 1031,6 hPa 0,0 l/m 12,9 km/h (3 Bft) W 270 0 min 0,8 UV-I 128 W/m 19,3 km/h (3 Bft)
26.03.2019 15:05 8,7 C 8,7 C 8,7 C 75 % 1031,7 hPa 0,0 l/m 12,9 km/h (3 Bft) W 270 0 min 0,7 UV-I 111 W/m 20,9 km/h (4 Bft)
26.03.2019 15:10 8,6 C 8,6 C 8,7 C 74 % 1031,6 hPa 0,0 l/m 12,9 km/h (3 Bft) W 270 0 min 0,6 UV-I 102 W/m 24,1 km/h (4 Bft)
26.03.2019 15:15 8,7 C 8,6 C 8,7 C 72 % 1031,7 hPa 0,0 l/m 14,5 km/h (3 Bft) W 270 0 min 0,9 UV-I 134 W/m 25,7 km/h (4 Bft)
26.03.2019 15:20 8,7 C 8,7 C 8,7 C 72 % 1031,5 hPa 0,0 l/m 16,1 km/h (3 Bft) W 270 0 min 0,9 UV-I 132 W/m 25,7 km/h (4 Bft)
26.03.2019 15:25 8,7 C 8,7 C 8,7 C 73 % 1031,6 hPa 0,0 l/m 14,5 km/h (3 Bft) W 270 0 min 0,6 UV-I 91 W/m 24,1 km/h (4 Bft)
26.03.2019 15:30 8,6 C 8,6 C 8,7 C 72 % 1031,6 hPa 0,0 l/m 16,1 km/h (3 Bft) W 270 0 min 0,0 UV-I 67 W/m 25,7 km/h (4 Bft)
26.03.2019 15:35 8,6 C 8,6 C 8,7 C 71 % 1031,6 hPa 0,0 l/m 12,9 km/h (3 Bft) W 270 0 min 0,5 UV-I 76 W/m 24,1 km/h (4 Bft)
26.03.2019 15:40 8,6 C 8,6 C 8,7 C 72 % 1031,6 hPa 0,0 l/m 16,1 km/h (3 Bft) W 270 0 min 0,5 UV-I 84 W/m 22,5 km/h (4 Bft)
26.03.2019 15:45 8,6 C 8,6 C 8,7 C 71 % 1031,7 hPa 0,0 l/m 12,9 km/h (3 Bft) W 270 0 min 0,6 UV-I 98 W/m 19,3 km/h (3 Bft)
26.03.2019 15:50 8,7 C 8,6 C 8,7 C 71 % 1031,7 hPa 0,0 l/m 14,5 km/h (3 Bft) W 270 0 min 0,6 UV-I 109 W/m 24,1 km/h (4 Bft)
26.03.2019 15:55 8,7 C 8,7 C 8,8 C 71 % 1031,6 hPa 0,0 l/m 14,5 km/h (3 Bft) W 270 0 min 0,7 UV-I 118 W/m 24,1 km/h (4 Bft)
26.03.2019 16:00 8,8 C 8,7 C 8,8 C 73 % 1031,6 hPa 0,0 l/m 14,5 km/h (3 Bft) W 270 0 min 0,9 UV-I 156 W/m 19,3 km/h (3 Bft)
26.03.2019 16:05 9,0 C 8,8 C 9,0 C 73 % 1031,6 hPa 0,0 l/m 12,9 km/h (3 Bft) W 270 0 min 0,9 UV-I 156 W/m 19,3 km/h (3 Bft)
26.03.2019 16:10 9,0 C 8,9 C 9,0 C 69 % 1031,5 hPa 0,0 l/m 14,5 km/h (3 Bft) W 270 0 min 0,8 UV-I 125 W/m 22,5 km/h (4 Bft)
26.03.2019 16:15 9,0 C 8,9 C 9,0 C 71 % 1031,6 hPa 0,0 l/m 12,9 km/h (3 Bft) W 270 0 min 0,7 UV-I 105 W/m 24,1 km/h (4 Bft)
26.03.2019 16:20 9,0 C 8,9 C 9,0 C 72 % 1031,5 hPa 0,0 l/m 12,9 km/h (3 Bft) W 270 0 min 0,6 UV-I 105 W/m 19,3 km/h (3 Bft)
26.03.2019 16:25 8,9 C 8,9 C 9,0 C 67 % 1031,5 hPa 0,0 l/m 16,1 km/h (3 Bft) W 270 0 min 0,7 UV-I 127 W/m 27,4 km/h (5 Bft)
26.03.2019 16:30 8,9 C 8,9 C 9,0 C 68 % 1031,5 hPa 0,0 l/m 14,5 km/h (3 Bft) W 270 0 min 0,7 UV-I 102 W/m 24,1 km/h (4 Bft)
26.03.2019 16:35 8,8 C 8,8 C 8,9 C 70 % 1031,5 hPa 0,0 l/m 16,1 km/h (3 Bft) W 270 0 min 0,5 UV-I 83 W/m 22,5 km/h (4 Bft)
26.03.2019 16:40 8,8 C 8,8 C 8,8 C 70 % 1031,5 hPa 0,0 l/m 14,5 km/h (3 Bft) W 270 0 min 0,0 UV-I 74 W/m 24,1 km/h (4 Bft)
26.03.2019 16:45 8,8 C 8,8 C 8,8 C 68 % 1031,4 hPa 0,0 l/m 12,9 km/h (3 Bft) W 270 0 min 0,5 UV-I 98 W/m 20,9 km/h (4 Bft)
26.03.2019 16:50 8,9 C 8,8 C 8,9 C 70 % 1031,4 hPa 0,0 l/m 11,3 km/h (2 Bft) W 270 0 min 0,6 UV-I 127 W/m 17,7 km/h (3 Bft)
26.03.2019 16:55 8,9 C 8,9 C 9,0 C 68 % 1031,5 hPa 0,0 l/m 14,5 km/h (3 Bft) W 270 0 min 0,6 UV-I 125 W/m 19,3 km/h (3 Bft)
26.03.2019 17:00 9,0 C 8,9 C 9,0 C 69 % 1031,4 hPa 0,0 l/m 14,5 km/h (3 Bft) W 270 0 min 0,5 UV-I 114 W/m 20,9 km/h (4 Bft)
26.03.2019 17:05 8,9 C 8,9 C 9,0 C 68 % 1031,4 hPa 0,0 l/m 14,5 km/h (3 Bft) W 270 0 min 0,0 UV-I 102 W/m 19,3 km/h (3 Bft)
26.03.2019 17:10 8,9 C 8,9 C 9,0 C 68 % 1031,3 hPa 0,0 l/m 14,5 km/h (3 Bft) W 270 0 min 0,0 UV-I 70 W/m 24,1 km/h (4 Bft)
26.03.2019 17:15 8,9 C 8,9 C 8,9 C 70 % 1031,4 hPa 0,0 l/m 12,9 km/h (3 Bft) W 270 0 min 0,0 UV-I 53 W/m 20,9 km/h (4 Bft)
26.03.2019 17:20 8,8 C 8,8 C 8,9 C 68 % 1031,4 hPa 0,0 l/m 14,5 km/h (3 Bft) W 270 0 min 0,0 UV-I 44 W/m 22,5 km/h (4 Bft)
26.03.2019 17:25 8,9 C 8,8 C 8,9 C 68 % 1031,3 hPa 0,0 l/m 12,9 km/h (3 Bft) W 270 0 min 0,0 UV-I 47 W/m 19,3 km/h (3 Bft)
26.03.2019 17:30 8,8 C 8,8 C 8,9 C 70 % 1031,3 hPa 0,0 l/m 11,3 km/h (2 Bft) W 270 0 min 0,0 UV-I 58 W/m 16,1 km/h (3 Bft)
26.03.2019 17:35 8,8 C 8,8 C 8,8 C 69 % 1031,3 hPa 0,0 l/m 9,7 km/h (2 Bft) W 270 0 min 0,0 UV-I 62 W/m 19,3 km/h (3 Bft)
26.03.2019 17:40 8,8 C 8,8 C 8,8 C 68 % 1031,4 hPa 0,0 l/m 12,9 km/h (3 Bft) W 270 0 min 0,0 UV-I 28 W/m 22,5 km/h (4 Bft)
26.03.2019 17:45 8,8 C 8,8 C 8,8 C 68 % 1031,5 hPa 0,0 l/m 11,3 km/h (2 Bft) W 270 0 min 0,0 UV-I 23 W/m 16,1 km/h (3 Bft)
26.03.2019 17:50 8,8 C 8,8 C 8,8 C 69 % 1031,5 hPa 0,0 l/m 8,0 km/h (2 Bft) W 270 0 min 0,0 UV-I 19 W/m 12,9 km/h (3 Bft)
26.03.2019 17:55 8,7 C 8,7 C 8,8 C 71 % 1031,5 hPa 0,0 l/m 6,4 km/h (2 Bft) W 270 0 min 0,0 UV-I 16 W/m 11,3 km/h (2 Bft)
26.03.2019 18:00 8,6 C 8,6 C 8,8 C 72 % 1031,6 hPa 0,0 l/m 4,8 km/h (1 Bft) W 270 0 min 0,0 UV-I 12 W/m 11,3 km/h (2 Bft)
26.03.2019 18:05 8,6 C 8,6 C 8,6 C 71 % 1031,5 hPa 0,0 l/m 4,8 km/h (1 Bft) W-NW 292 0 min 0,0 UV-I 12 W/m 11,3 km/h (2 Bft)
26.03.2019 18:10 8,7 C 8,6 C 8,7 C 72 % 1031,5 hPa 0,0 l/m 3,2 km/h (1 Bft) W 270 0 min 0,0 UV-I 14 W/m 6,4 km/h (2 Bft)
26.03.2019 18:15 8,6 C 8,6 C 8,6 C 73 % 1031,5 hPa 0,0 l/m 3,2 km/h (1 Bft) W 270 0 min 0,0 UV-I 16 W/m 9,7 km/h (2 Bft)
26.03.2019 18:20 8,6 C 8,5 C 8,6 C 72 % 1031,5 hPa 0,0 l/m 4,8 km/h (1 Bft) W 270 0 min 0,0 UV-I 14 W/m 9,7 km/h (2 Bft)
26.03.2019 18:25 8,5 C 8,5 C 8,6 C 73 % 1031,4 hPa 0,0 l/m 3,2 km/h (1 Bft) W 270 0 min 0,0 UV-I 7 W/m 9,7 km/h (2 Bft)
26.03.2019 18:30 8,4 C 8,4 C 8,5 C 73 % 1031,5 hPa 0,0 l/m 4,8 km/h (1 Bft) W 270 0 min 0,0 UV-I 5 W/m 11,3 km/h (2 Bft)
26.03.2019 18:35 8,4 C 8,4 C 8,4 C 74 % 1031,5 hPa 0,0 l/m 3,2 km/h (1 Bft) W 270 0 min 0,0 UV-I 0 W/m 9,7 km/h (2 Bft)
26.03.2019 18:40 8,3 C 8,3 C 8,4 C 73 % 1031,6 hPa 0,0 l/m 3,2 km/h (1 Bft) W 270 0 min 0,0 UV-I 0 W/m 9,7 km/h (2 Bft)
26.03.2019 18:45 8,4 C 8,3 C 8,4 C 75 % 1031,4 hPa 0,0 l/m 3,2 km/h (1 Bft) W 270 0 min 0,0 UV-I 0 W/m 9,7 km/h (2 Bft)
26.03.2019 18:50 8,3 C 8,3 C 8,4 C 74 % 1031,5 hPa 0,0 l/m 1,6 km/h (1 Bft) W 270 0 min 0,0 UV-I 0 W/m 9,7 km/h (2 Bft)
26.03.2019 18:55 8,3 C 8,2 C 8,3 C 74 % 1031,5 hPa 0,0 l/m 3,2 km/h (1 Bft) W 270 0 min 0,0 UV-I 0 W/m 6,4 km/h (2 Bft)
26.03.2019 19:00 8,2 C 8,2 C 8,3 C 74 % 1031,5 hPa 0,0 l/m 3,2 km/h (1 Bft) W 270 0 min 0,0 UV-I 0 W/m 9,7 km/h (2 Bft)
26.03.2019 19:05 8,2 C 8,2 C 8,2 C 75 % 1031,4 hPa 0,0 l/m 1,6 km/h (1 Bft) W 270 0 min 0,0 UV-I 0 W/m 4,8 km/h (1 Bft)
26.03.2019 19:10 8,1 C 8,1 C 8,2 C 75 % 1031,6 hPa 0,0 l/m 3,2 km/h (1 Bft) W 270 0 min 0,0 UV-I 0 W/m 6,4 km/h (2 Bft)
26.03.2019 19:15 8,1 C 8,1 C 8,1 C 75 % 1031,6 hPa 0,0 l/m 1,6 km/h (1 Bft) W 270 0 min 0,0 UV-I 0 W/m 4,8 km/h (1 Bft)
26.03.2019 19:20 8,2 C 8,1 C 8,2 C 75 % 1031,6 hPa 0,0 l/m 4,8 km/h (1 Bft) W 270 0 min 0,0 UV-I 0 W/m 9,7 km/h (2 Bft)
26.03.2019 19:25 8,2 C 8,1 C 8,2 C 75 % 1031,8 hPa 0,0 l/m 3,2 km/h (1 Bft) W 270 0 min 0,0 UV-I 0 W/m 9,7 km/h (2 Bft)
26.03.2019 19:30 8,1 C 8,1 C 8,2 C 75 % 1031,7 hPa 0,0 l/m 3,2 km/h (1 Bft) W 270 0 min 0,0 UV-I 0 W/m 9,7 km/h (2 Bft)
26.03.2019 19:35 8,1 C 8,0 C 8,1 C 74 % 1031,7 hPa 0,0 l/m 3,2 km/h (1 Bft) W 270 0 min 0,0 UV-I 0 W/m 9,7 km/h (2 Bft)
26.03.2019 19:40 8,1 C 8,1 C 8,1 C 73 % 1031,7 hPa 0,0 l/m 4,8 km/h (1 Bft) W 270 0 min 0,0 UV-I 0 W/m 9,7 km/h (2 Bft)
26.03.2019 19:45 8,1 C 8,1 C 8,1 C 73 % 1031,8 hPa 0,0 l/m 3,2 km/h (1 Bft) W 270 0 min 0,0 UV-I 0 W/m 9,7 km/h (2 Bft)
26.03.2019 19:50 8,1 C 8,1 C 8,1 C 75 % 1031,9 hPa 0,0 l/m 3,2 km/h (1 Bft) W 270 0 min 0,0 UV-I 0 W/m 9,7 km/h (2 Bft)
26.03.2019 19:55 8,1 C 8,0 C 8,1 C 74 % 1031,8 hPa 0,0 l/m 3,2 km/h (1 Bft) W 270 0 min 0,0 UV-I 0 W/m 9,7 km/h (2 Bft)
26.03.2019 20:00 8,0 C 8,0 C 8,1 C 74 % 1031,9 hPa 0,0 l/m 4,8 km/h (1 Bft) W 270 0 min 0,0 UV-I 0 W/m 9,7 km/h (2 Bft)
26.03.2019 20:05 7,9 C 7,9 C 8,1 C 74 % 1031,8 hPa 0,0 l/m 4,8 km/h (1 Bft) W 270 0 min 0,0 UV-I 0 W/m 9,7 km/h (2 Bft)
26.03.2019 20:10 7,9 C 7,9 C 8,0 C 74 % 1031,8 hPa 0,0 l/m 4,8 km/h (1 Bft) W 270 0 min 0,0 UV-I 0 W/m 9,7 km/h (2 Bft)
26.03.2019 20:15 7,9 C 7,9 C 7,9 C 73 % 1031,9 hPa 0,0 l/m 6,4 km/h (2 Bft) W 270 0 min 0,0 UV-I 0 W/m 11,3 km/h (2 Bft)
26.03.2019 20:20 7,9 C 7,9 C 7,9 C 73 % 1031,9 hPa 0,0 l/m 6,4 km/h (2 Bft) W 270 0 min 0,0 UV-I 0 W/m 11,3 km/h (2 Bft)
26.03.2019 20:25 8,0 C 7,9 C 8,0 C 73 % 1031,9 hPa 0,0 l/m 4,8 km/h (1 Bft) W 270 0 min 0,0 UV-I 0 W/m 11,3 km/h (2 Bft)
26.03.2019 20:30 7,9 C 7,9 C 7,9 C 73 % 1031,9 hPa 0,0 l/m 6,4 km/h (2 Bft) W 270 0 min 0,0 UV-I 0 W/m 11,3 km/h (2 Bft)
26.03.2019 20:35 8,0 C 7,9 C 8,1 C 74 % 1032,0 hPa 0,0 l/m 6,4 km/h (2 Bft) W 270 0 min 0,0 UV-I 0 W/m 14,5 km/h (3 Bft)
26.03.2019 20:40 7,9 C 7,9 C 7,9 C 74 % 1032,0 hPa 0,0 l/m 4,8 km/h (1 Bft) W 270 0 min 0,0 UV-I 0 W/m 9,7 km/h (2 Bft)
26.03.2019 20:45 7,8 C 7,8 C 7,9 C 74 % 1032,2 hPa 0,0 l/m 4,8 km/h (1 Bft) W 270 0 min 0,0 UV-I 0 W/m 9,7 km/h (2 Bft)
26.03.2019 20:50 7,9 C 7,8 C 7,9 C 73 % 1032,3 hPa 0,0 l/m 6,4 km/h (2 Bft) W 270 0 min 0,0 UV-I 0 W/m 11,3 km/h (2 Bft)
26.03.2019 20:55 8,0 C 7,8 C 8,0 C 72 % 1032,3 hPa 0,0 l/m 6,4 km/h (2 Bft) W 270 0 min 0,0 UV-I 0 W/m 14,5 km/h (3 Bft)
26.03.2019 21:00 8,1 C 8,0 C 8,1 C 72 % 1032,4 hPa 0,0 l/m 6,4 km/h (2 Bft) W 270 0 min 0,0 UV-I 0 W/m 11,3 km/h (2 Bft)
26.03.2019 21:05 8,1 C 8,1 C 8,1 C 72 % 1032,4 hPa 0,0 l/m 6,4 km/h (2 Bft) W 270 0 min 0,0 UV-I 0 W/m 14,5 km/h (3 Bft)
26.03.2019 21:10 8,1 C 8,1 C 8,2 C 72 % 1032,5 hPa 0,0 l/m 4,8 km/h (1 Bft) W 270 0 min 0,0 UV-I 0 W/m 11,3 km/h (2 Bft)
26.03.2019 21:15 8,2 C 8,1 C 8,2 C 73 % 1032,3 hPa 0,0 l/m 4,8 km/h (1 Bft) W-NW 292 0 min 0,0 UV-I 0 W/m 12,9 km/h (3 Bft)
26.03.2019 21:20 8,3 C 8,2 C 8,3 C 71 % 1032,4 hPa 0,0 l/m 4,8 km/h (1 Bft) W 270 0 min 0,0 UV-I 0 W/m 11,3 km/h (2 Bft)
26.03.2019 21:25 8,3 C 8,2 C 8,3 C 71 % 1032,5 hPa 0,0 l/m 6,4 km/h (2 Bft) W 270 0 min 0,0 UV-I 0 W/m 14,5 km/h (3 Bft)
26.03.2019 21:30 8,4 C 8,3 C 8,4 C 70 % 1032,4 hPa 0,0 l/m 6,4 km/h (2 Bft) W 270 0 min 0,0 UV-I 0 W/m 14,5 km/h (3 Bft)
26.03.2019 21:35 8,4 C 8,4 C 8,4 C 70 % 1032,3 hPa 0,0 l/m 6,4 km/h (2 Bft) W 270 0 min 0,0 UV-I 0 W/m 16,1 km/h (3 Bft)
26.03.2019 21:40 8,4 C 8,4 C 8,4 C 71 % 1032,4 hPa 0,0 l/m 6,4 km/h (2 Bft) W-NW 292 0 min 0,0 UV-I 0 W/m 14,5 km/h (3 Bft)
26.03.2019 21:45 8,4 C 8,3 C 8,4 C 71 % 1032,4 hPa 0,0 l/m 4,8 km/h (1 Bft) W 270 0 min 0,0 UV-I 0 W/m 12,9 km/h (3 Bft)
26.03.2019 21:50 8,4 C 8,3 C 8,4 C 71 % 1032,4 hPa 0,0 l/m 6,4 km/h (2 Bft) W-NW 292 0 min 0,0 UV-I 0 W/m 12,9 km/h (3 Bft)
26.03.2019 21:55 8,3 C 8,3 C 8,3 C 72 % 1032,4 hPa 0,0 l/m 6,4 km/h (2 Bft) W-NW 292 0 min 0,0 UV-I 0 W/m 14,5 km/h (3 Bft)
26.03.2019 22:00 8,1 C 8,1 C 8,3 C 74 % 1032,4 hPa 0,0 l/m 4,8 km/h (1 Bft) W 270 0 min 0,0 UV-I 0 W/m 12,9 km/h (3 Bft)
26.03.2019 22:05 7,9 C 7,9 C 8,1 C 75 % 1032,4 hPa 0,0 l/m 4,8 km/h (1 Bft) W 270 0 min 0,0 UV-I 0 W/m 9,7 km/h (2 Bft)
26.03.2019 22:10 7,8 C 7,7 C 7,9 C 75 % 1032,4 hPa 0,0 l/m 4,8 km/h (1 Bft) W 270 0 min 0,0 UV-I 0 W/m 9,7 km/h (2 Bft)
26.03.2019 22:15 7,6 C 7,6 C 7,8 C 76 % 1032,4 hPa 0,0 l/m 4,8 km/h (1 Bft) W 270 0 min 0,0 UV-I 0 W/m 9,7 km/h (2 Bft)
26.03.2019 22:20 7,6 C 7,5 C 7,6 C 76 % 1032,4 hPa 0,0 l/m 4,8 km/h (1 Bft) W 270 0 min 0,0 UV-I 0 W/m 9,7 km/h (2 Bft)
26.03.2019 22:25 7,6 C 7,6 C 7,6 C 76 % 1032,5 hPa 0,0 l/m 6,4 km/h (2 Bft) W 270 0 min 0,0 UV-I 0 W/m 11,3 km/h (2 Bft)
26.03.2019 22:30 7,6 C 7,5 C 7,6 C 76 % 1032,5 hPa 0,0 l/m 6,4 km/h (2 Bft) W 270 0 min 0,0 UV-I 0 W/m 9,7 km/h (2 Bft)
26.03.2019 22:35 7,6 C 7,6 C 7,6 C 76 % 1032,5 hPa 0,0 l/m 6,4 km/h (2 Bft) W 270 0 min 0,0 UV-I 0 W/m 9,7 km/h (2 Bft)
26.03.2019 22:40 7,6 C 7,5 C 7,6 C 76 % 1032,5 hPa 0,0 l/m 4,8 km/h (1 Bft) W 270 0 min 0,0 UV-I 0 W/m 9,7 km/h (2 Bft)
26.03.2019 22:45 7,6 C 7,6 C 7,6 C 76 % 1032,5 hPa 0,0 l/m 4,8 km/h (1 Bft) W 270 0 min 0,0 UV-I 0 W/m 11,3 km/h (2 Bft)
26.03.2019 22:50 7,6 C 7,6 C 7,6 C 76 % 1032,6 hPa 0,0 l/m 4,8 km/h (1 Bft) W 270 0 min 0,0 UV-I 0 W/m 9,7 km/h (2 Bft)
26.03.2019 22:55 7,5 C 7,5 C 7,6 C 76 % 1032,6 hPa 0,0 l/m 6,4 km/h (2 Bft) W 270 0 min 0,0 UV-I 0 W/m 12,9 km/h (3 Bft)
26.03.2019 23:00 7,6 C 7,5 C 7,6 C 75 % 1032,5 hPa 0,0 l/m 8,0 km/h (2 Bft) W 270 0 min 0,0 UV-I 0 W/m 16,1 km/h (3 Bft)
26.03.2019 23:05 7,6 C 7,6 C 7,6 C 76 % 1032,5 hPa 0,0 l/m 8,0 km/h (2 Bft) W 270 0 min 0,0 UV-I 0 W/m 12,9 km/h (3 Bft)
26.03.2019 23:10 7,5 C 7,4 C 7,6 C 76 % 1032,6 hPa 0,0 l/m 4,8 km/h (1 Bft) W 270 0 min 0,0 UV-I 0 W/m 9,7 km/h (2 Bft)
26.03.2019 23:15 7,4 C 7,4 C 7,5 C 77 % 1032,5 hPa 0,0 l/m 6,4 km/h (2 Bft) W 270 0 min 0,0 UV-I 0 W/m 9,7 km/h (2 Bft)
26.03.2019 23:20 7,3 C 7,3 C 7,4 C 77 % 1032,5 hPa 0,0 l/m 6,4 km/h (2 Bft) W 270 0 min 0,0 UV-I 0 W/m 11,3 km/h (2 Bft)
26.03.2019 23:25 7,3 C 7,3 C 7,3 C 78 % 1032,4 hPa 0,0 l/m 3,2 km/h (1 Bft) W 270 0 min 0,0 UV-I 0 W/m 6,4 km/h (2 Bft)
26.03.2019 23:30 7,1 C 7,1 C 7,3 C 78 % 1032,5 hPa 0,0 l/m 4,8 km/h (1 Bft) W 270 0 min 0,0 UV-I 0 W/m 9,7 km/h (2 Bft)
26.03.2019 23:35 7,1 C 7,1 C 7,2 C 78 % 1032,4 hPa 0,0 l/m 6,4 km/h (2 Bft) W 270 0 min 0,0 UV-I 0 W/m 9,7 km/h (2 Bft)
26.03.2019 23:40 7,0 C 7,0 C 7,1 C 79 % 1032,5 hPa 0,0 l/m 4,8 km/h (1 Bft) W 270 0 min 0,0 UV-I 0 W/m 9,7 km/h (2 Bft)
26.03.2019 23:45 7,1 C 7,0 C 7,1 C 78 % 1032,5 hPa 0,0 l/m 6,4 km/h (2 Bft) W 270 0 min 0,0 UV-I 0 W/m 11,3 km/h (2 Bft)
26.03.2019 23:50 7,1 C 7,1 C 7,1 C 79 % 1032,4 hPa 0,0 l/m 4,8 km/h (1 Bft) W 270 0 min 0,0 UV-I 0 W/m 9,7 km/h (2 Bft)
26.03.2019 23:55 7,1 C 7,0 C 7,1 C 79 % 1032,5 hPa 0,0 l/m 4,8 km/h (1 Bft) W 270 0 min 0,0 UV-I 0 W/m 9,7 km/h (2 Bft)
_ Min-Zeit 06:30 06:30 06:25 12:25 00:00 - 00:00 - - - - - 02:40
Minimum _ 5,5 C 5,5 C 5,6 C 65 % 1031,0 hPa - 1,6 km/h (1 Bft) - - - - - 4,8 km/h (1 Bft)
_ Max-Zeit 12:25 12:20 12:25 00:00 10:55 00:00 12:55 - - 09:10 12:05 10:05 13:05
Maximum _ 9,1 C 8,9 C 9,1 C 80 % 1032,8 hPa 0,0 l/m 19,3 km/h
W (3 Bft)
- - 5 min 3,9 UV-I 638 W/m 29,0 km/h
W-NW (5 Bft)
Durchschnitt _ 7,4 C 7,3 C 7,4 C 73 % 1031,9 hPa #0,0 l/m 8,0 km/h (2 Bft) W - #1:50 h 1,4 UV-I 171 W/m 15,4 km/h (3 Bft)